PWSweather.com
Personal Weather Stations
Station Observations
KNHFREMO3
Fremont, Fremont, NH 03044

FremontFremont, NH 03044

Lat: 42.964965, Lon: -71.118193

Elevation: 171

Station Type: Davis Vantage Pro2

Latest ConditionsUpdated 5:00:02 PM EDT Thursday, Sep 21, 2017
Currently Today's Max Today's Min Today's Average
Temperature 70.7°F21.5°C 71.9°F22.2°C 66.3°F19.1°C 69.1°F20.6°C
Dew Point 58.4°F14.7°C 65.8°F18.8°C 58.4°F14.7°C 62.5°F16.9°C
Winds 1.0 mph NW1.6 kmh NW 3.0 mph ENE4.8 kmh ENE - 1.5 mph 2.4 kmh
Wind Gusts 3.0 mph4.8 kmh 13.0 mph20.9 kmh - -
Humidity 65% 91% 63% 80%
Pressure 30.04 in1017.3 mb 30.06 in1017.9 mb 29.93 in1013.5 mb -
Precipitation - 0.04 in1.0 mm - -
Hour Temp Dew Point Humidity Winds Wind Gusts Pressure Precip Precip Rate Daily Precip Total
05:00 PM 70.7°F21.5°C 58.4°F14.7°C 65% 1.0 mph NW1.6 kmh NW 3.0 mph4.8 kmh 30.04 in1017.3 mb 0.00 in0.0 mm 0.00 in0.0 mm 0.04 in1.0 mm
04:30 PM 71.9°F22.2°C 58.6°F14.8°C 63% Calm Calm 4.0 mph6.4 kmh 30.04 in1017.3 mb 0.00 in0.0 mm 0.00 in0.0 mm 0.04 in1.0 mm
04:00 PM 71.7°F22.1°C 59.3°F15.2°C 65% 1.0 mph ENE1.6 kmh ENE 5.0 mph8.0 kmh 30.04 in1017.3 mb 0.00 in0.0 mm 0.00 in0.0 mm 0.04 in1.0 mm
03:30 PM 71.7°F22.1°C 58.4°F14.7°C 63% 2.0 mph N3.2 kmh N 7.0 mph11.3 kmh 30.04 in1017.3 mb 0.00 in0.0 mm 0.00 in0.0 mm 0.04 in1.0 mm
03:00 PM 71.6°F22.0°C 60.9°F16.1°C 69% 1.0 mph SE1.6 kmh SE 6.0 mph9.7 kmh 30.04 in1017.3 mb 0.00 in0.0 mm 0.00 in0.0 mm 0.04 in1.0 mm
02:30 PM 71.5°F21.9°C 61.2°F16.2°C 70% 2.0 mph SE3.2 kmh SE 6.0 mph9.7 kmh 30.04 in1017.3 mb 0.00 in0.0 mm 0.00 in0.0 mm 0.04 in1.0 mm
02:00 PM 71.7°F22.1°C 61.4°F16.3°C 70% 2.0 mph E3.2 kmh E 7.0 mph11.3 kmh 30.04 in1017.3 mb 0.01 in0.3 mm 0.00 in0.0 mm 0.04 in1.0 mm
01:30 PM 71.7°F22.1°C 61.0°F16.1°C 69% 2.0 mph E3.2 kmh E 9.0 mph14.5 kmh 30.04 in1017.3 mb 0.01 in0.3 mm 0.02 in0.5 mm 0.04 in1.0 mm
01:00 PM 71.5°F21.9°C 61.6°F16.4°C 71% 2.0 mph E3.2 kmh E 9.0 mph14.5 kmh 30.05 in1017.6 mb 0.00 in0.0 mm 0.00 in0.0 mm 0.03 in0.8 mm
12:30 PM 71.4°F21.9°C 60.7°F15.9°C 69% 2.0 mph E3.2 kmh E 10.0 mph16.1 kmh 30.05 in1017.6 mb 0.00 in0.0 mm 0.00 in0.0 mm 0.03 in0.8 mm
12:00 PM 71.6°F22.0°C 62.1°F16.7°C 72% 3.0 mph NE4.8 kmh NE 11.0 mph17.7 kmh 30.05 in1017.6 mb 0.00 in0.0 mm 0.00 in0.0 mm 0.03 in0.8 mm
11:30 AM 71.8°F22.1°C 62.7°F17.1°C 73% 3.0 mph E4.8 kmh E 10.0 mph16.1 kmh 30.06 in1017.9 mb 0.01 in0.3 mm 0.00 in0.0 mm 0.03 in0.8 mm
11:00 AM 71.6°F22.0°C 62.5°F16.9°C 73% 3.0 mph ENE4.8 kmh ENE 9.0 mph14.5 kmh 30.06 in1017.9 mb 0.01 in0.3 mm 0.02 in0.5 mm 0.03 in0.8 mm
10:30 AM 70.9°F21.6°C 63.0°F17.2°C 76% 2.0 mph E3.2 kmh E 8.0 mph12.9 kmh 30.06 in1017.9 mb 0.00 in0.0 mm 0.00 in0.0 mm 0.02 in0.5 mm
10:00 AM 69.0°F20.6°C 62.9°F17.2°C 81% 2.0 mph E3.2 kmh E 8.0 mph12.9 kmh 30.06 in1017.9 mb 0.00 in0.0 mm 0.00 in0.0 mm 0.02 in0.5 mm
09:30 AM 68.1°F20.1°C 62.4°F16.9°C 82% 2.0 mph E3.2 kmh E 8.0 mph12.9 kmh 30.05 in1017.6 mb 0.00 in0.0 mm 0.00 in0.0 mm 0.02 in0.5 mm
09:00 AM 67.3°F19.6°C 62.0°F16.7°C 83% 2.0 mph E3.2 kmh E 9.0 mph14.5 kmh 30.04 in1017.3 mb 0.00 in0.0 mm 0.00 in0.0 mm 0.02 in0.5 mm
08:30 AM 67.0°F19.4°C 62.3°F16.8°C 85% 2.0 mph NE3.2 kmh NE 13.0 mph20.9 kmh 30.03 in1016.9 mb 0.00 in0.0 mm 0.00 in0.0 mm 0.02 in0.5 mm
08:00 AM 66.5°F19.2°C 62.5°F16.9°C 87% 1.0 mph E1.6 kmh E 7.0 mph11.3 kmh 30.02 in1016.6 mb 0.00 in0.0 mm 0.00 in0.0 mm 0.02 in0.5 mm
07:30 AM 66.3°F19.1°C 62.3°F16.8°C 87% 1.0 mph SE1.6 kmh SE 3.0 mph4.8 kmh 30.02 in1016.6 mb 0.01 in0.3 mm 0.00 in0.0 mm 0.02 in0.5 mm
07:00 AM 66.8°F19.3°C 62.5°F16.9°C 86% 2.0 mph N3.2 kmh N 5.0 mph8.0 kmh 30.00 in1015.9 mb 0.01 in0.3 mm 0.02 in0.5 mm 0.02 in0.5 mm
06:30 AM 66.8°F19.3°C 62.5°F16.9°C 86% 1.0 mph E1.6 kmh E 4.0 mph6.4 kmh 29.99 in1015.6 mb 0.00 in0.0 mm 0.00 in0.0 mm 0.01 in0.3 mm
06:00 AM 66.8°F19.3°C 62.8°F17.1°C 87% 1.0 mph E1.6 kmh E 3.0 mph4.8 kmh 29.98 in1015.2 mb 0.00 in0.0 mm 0.00 in0.0 mm 0.01 in0.3 mm
05:30 AM 66.6°F19.2°C 62.9°F17.2°C 88% 1.0 mph NE1.6 kmh NE 4.0 mph6.4 kmh 29.97 in1014.9 mb 0.00 in0.0 mm 0.00 in0.0 mm 0.01 in0.3 mm
05:00 AM 66.5°F19.2°C 62.8°F17.1°C 88% 1.0 mph SE1.6 kmh SE 4.0 mph6.4 kmh 29.96 in1014.6 mb 0.00 in0.0 mm 0.00 in0.0 mm 0.01 in0.3 mm
04:30 AM 66.9°F19.4°C 63.2°F17.3°C 88% 1.0 mph S1.6 kmh S 3.0 mph4.8 kmh 29.95 in1014.2 mb 0.00 in0.0 mm 0.00 in0.0 mm 0.01 in0.3 mm
04:00 AM 67.2°F19.6°C 63.5°F17.5°C 88% 1.0 mph ESE1.6 kmh ESE 4.0 mph6.4 kmh 29.95 in1014.2 mb 0.00 in0.0 mm 0.00 in0.0 mm 0.01 in0.3 mm
03:30 AM 67.5°F19.7°C 63.8°F17.7°C 88% 1.0 mph NE1.6 kmh NE 6.0 mph9.7 kmh 29.95 in1014.2 mb 0.00 in0.0 mm 0.00 in0.0 mm 0.01 in0.3 mm
03:00 AM 67.8°F19.9°C 64.1°F17.8°C 88% 1.0 mph ESE1.6 kmh ESE 6.0 mph9.7 kmh 29.95 in1014.2 mb 0.00 in0.0 mm 0.00 in0.0 mm 0.01 in0.3 mm
02:30 AM 68.3°F20.2°C 64.6°F18.1°C 88% 1.0 mph E1.6 kmh E 9.0 mph14.5 kmh 29.95 in1014.2 mb 0.00 in0.0 mm 0.00 in0.0 mm 0.01 in0.3 mm
02:00 AM 68.7°F20.4°C 65.3°F18.5°C 89% 2.0 mph E3.2 kmh E 8.0 mph12.9 kmh 29.94 in1013.9 mb 0.00 in0.0 mm 0.00 in0.0 mm 0.01 in0.3 mm
01:30 AM 68.7°F20.4°C 65.3°F18.5°C 89% 1.0 mph NE1.6 kmh NE 9.0 mph14.5 kmh 29.94 in1013.9 mb 0.01 in0.3 mm 0.00 in0.0 mm 0.01 in0.3 mm
01:00 AM 68.4°F20.2°C 65.7°F18.7°C 91% 1.0 mph S1.6 kmh S 6.0 mph9.7 kmh 29.94 in1013.9 mb 0.01 in0.3 mm 0.02 in0.5 mm 0.01 in0.3 mm
12:30 AM 68.3°F20.2°C 65.6°F18.7°C 91% 1.0 mph W1.6 kmh W 3.0 mph4.8 kmh 29.94 in1013.9 mb 0.00 in0.0 mm 0.00 in0.0 mm 0.00 in0.0 mm
12:00 AM 68.5°F20.3°C 65.8°F18.8°C 91% 1.0 mph S1.6 kmh S 3.0 mph4.8 kmh 29.93 in1013.5 mb 0.00 in0.0 mm 0.00 in0.0 mm 0.00 in0.0 mm